Time;durP1;ratioP1;P1;durP2;ratioP2;P2;SDS_P1;SDS_P2;PMS_P1;PMS_P2;Temp;Humidity;BMP_temperature;BMP_pressure;BME280_temperature;BME280_humidity;BME280_pressure;Samples;Min_cycle;Max_cycle;Signal;HPM_P1;HPM_P2
2022/03/26 00:00:26;;;;;;;;;;;;;;;6.88;58.27;103130.28;5109787;28;19975;-74
2022/03/26 00:02:51;;;;;;;;;;;;;;;6.85;60.20;103130.03;5101247;28;20320;-74
2022/03/26 00:05:17;;;;;;;;;;;;;;;6.80;57.67;103136.47;5107737;28;19926;-73
2022/03/26 00:07:43;;;;;;;;;;;;;;;6.76;58.91;103138.66;5107538;28;19961;-73
2022/03/26 00:10:08;;;;;;;;;;;;;;;6.71;56.26;103131.50;5110099;28;19920;-72
2022/03/26 00:12:34;;;;;;;;;;;;;;;6.66;58.74;103135.34;5108872;28;20297;-72
2022/03/26 00:14:59;;;;;;;;;;;;;;;6.61;59.13;103126.44;5109133;28;19955;-73
2022/03/26 00:17:25;;;;;;;;;;;;;;;6.59;58.54;103133.09;5110685;28;20006;-72
2022/03/26 00:19:50;;;;;;;;;;;;;;;6.56;59.55;103127.75;5108306;28;20384;-73
2022/03/26 00:22:16;;;;;;;;;;;;;;;6.53;59.82;103126.59;5107902;28;19973;-73
2022/03/26 00:24:41;;;;;;;;;;;;;;;6.50;60.35;103134.03;5108579;28;20361;-73
2022/03/26 00:27:07;;;;;;;;;;;;;;;6.45;58.51;103131.97;5104235;28;19924;-73
2022/03/26 00:29:32;;;;;;;;;;;;;;;6.41;59.69;103127.38;5107316;28;19923;-73
2022/03/26 00:31:58;;;;;;;;;;;;;;;6.36;60.30;103123.56;5102109;28;19930;-72
2022/03/26 00:34:23;;;;;;;;;;;;;;;6.34;60.15;103130.22;5104860;28;20334;-72
2022/03/26 00:36:48;;;;;;;;;;;;;;;6.29;58.95;103128.94;5107532;28;20366;-73
2022/03/26 00:39:13;;;;;;;;;;;;;;;6.27;60.16;103129.59;5106681;28;19955;-73
2022/03/26 00:41:39;;;;;;;;;;;;;;;6.24;58.12;103127.66;5108119;28;20374;-73
2022/03/26 00:44:04;;;;;;;;;;;;;;;6.20;59.22;103124.75;5106454;28;19924;-73
2022/03/26 00:46:29;;;;;;;;;;;;;;;6.17;58.86;103130.50;5107869;28;20431;-73
2022/03/26 00:48:58;;;;;;;;;;;;;;;6.12;58.31;103125.00;5107885;28;19934;-73
2022/03/26 00:51:24;;;;;;;;;;;;;;;6.08;59.95;103125.53;5103000;28;20003;-73
2022/03/26 00:53:49;;;;;;;;;;;;;;;6.05;60.88;103124.38;5107828;28;20026;-73
2022/03/26 00:56:15;;;;;;;;;;;;;;;6.01;62.15;103119.81;5108894;28;19970;-73
2022/03/26 00:58:40;;;;;;;;;;;;;;;5.99;61.73;103121.31;5103967;28;19920;-73
2022/03/26 01:01:07;;;;;;;;;;;;;;;5.95;61.61;103116.75;5111201;28;19942;-73
2022/03/26 01:03:32;;;;;;;;;;;;;;;5.92;59.83;103125.03;5109038;28;20406;-73
2022/03/26 01:05:57;;;;;;;;;;;;;;;5.89;60.66;103124.75;5109500;28;19919;-73
2022/03/26 01:08:23;;;;;;;;;;;;;;;5.86;62.32;103121.94;5107844;28;19924;-73
2022/03/26 01:10:48;;;;;;;;;;;;;;;5.82;61.87;103114.78;5111569;28;19958;-73
2022/03/26 01:13:14;;;;;;;;;;;;;;;5.77;62.14;103116.97;5108996;28;19916;-73
2022/03/26 01:15:39;;;;;;;;;;;;;;;5.76;61.33;103119.38;5106674;28;20638;-73
2022/03/26 01:18:05;;;;;;;;;;;;;;;5.72;60.27;103115.69;5107996;28;19924;-73
2022/03/26 01:20:30;;;;;;;;;;;;;;;5.70;62.77;103111.22;5107249;28;19916;-73
2022/03/26 01:22:55;;;;;;;;;;;;;;;5.69;64.08;103117.09;5092625;28;19923;-73
2022/03/26 01:25:21;;;;;;;;;;;;;;;5.68;64.52;103116.19;5107018;28;19920;-73
2022/03/26 01:27:46;;;;;;;;;;;;;;;5.67;62.43;103116.97;5110189;28;20296;-73
2022/03/26 01:30:12;;;;;;;;;;;;;;;5.64;65.48;103116.69;5106998;28;20298;-72
2022/03/26 01:32:37;;;;;;;;;;;;;;;5.64;61.88;103122.72;5107856;28;19912;-73
2022/03/26 01:35:03;;;;;;;;;;;;;;;5.62;62.50;103123.34;5109623;28;20350;-73
2022/03/26 01:37:28;;;;;;;;;;;;;;;5.59;62.26;103120.53;5108415;28;19912;-73
2022/03/26 01:39:54;;;;;;;;;;;;;;;5.56;63.94;103113.50;5109832;28;20456;-73
2022/03/26 01:42:20;;;;;;;;;;;;;;;5.52;64.15;103116.59;5107435;28;19945;-74
2022/03/26 01:44:45;;;;;;;;;;;;;;;5.50;63.82;103114.66;5112687;28;19915;-72
2022/03/26 01:47:10;;;;;;;;;;;;;;;5.46;63.55;103125.34;5112284;28;19919;-73
2022/03/26 01:49:36;;;;;;;;;;;;;;;5.45;61.13;103119.34;5111742;28;19924;-73
2022/03/26 01:52:02;;;;;;;;;;;;;;;5.45;62.96;103128.66;5109759;28;19994;-74
2022/03/26 01:54:28;;;;;;;;;;;;;;;5.44;64.79;103121.78;5117438;27;19924;-73
2022/03/26 01:56:53;;;;;;;;;;;;;;;5.41;64.43;103127.53;5109771;28;19930;-73
2022/03/26 01:59:19;;;;;;;;;;;;;;;5.39;63.13;103119.72;5108472;28;19916;-72
2022/03/26 02:01:45;;;;;;;;;;;;;;;5.37;63.62;103113.63;5107835;28;19930;-73
2022/03/26 02:04:11;;;;;;;;;;;;;;;5.33;63.06;103115.75;5110976;28;19955;-72
2022/03/26 02:06:38;;;;;;;;;;;;;;;5.31;64.48;103120.75;5109518;28;19928;-72
2022/03/26 02:09:04;;;;;;;;;;;;;;;5.28;63.50;103120.50;5107931;28;20413;-72
2022/03/26 02:11:34;;;;;;;;;;;;;;;5.24;65.27;103121.00;5110764;28;20431;-74
2022/03/26 02:13:59;;;;;;;;;;;;;;;5.23;64.05;103121.75;5109574;28;20019;-74
2022/03/26 02:16:25;;;;;;;;;;;;;;;5.20;64.88;103124.03;5112163;28;20014;-74
2022/03/26 02:18:51;;;;;;;;;;;;;;;5.17;68.31;103121.22;5107287;28;20374;-74
2022/03/26 02:21:17;;;;;;;;;;;;;;;5.15;64.88;103121.84;5112714;28;19970;-73
2022/03/26 02:23:44;;;;;;;;;;;;;;;5.10;62.57;103124.91;5109756;28;19927;-73
2022/03/26 02:26:09;;;;;;;;;;;;;;;5.06;65.01;103121.97;5109853;28;19995;-73
2022/03/26 02:28:35;;;;;;;;;;;;;;;5.03;66.50;103121.69;5107542;28;20006;-73
2022/03/26 02:31:00;;;;;;;;;;;;;;;5.00;64.17;103118.88;5112588;27;19912;-73
2022/03/26 02:33:25;;;;;;;;;;;;;;;4.97;64.53;103121.16;5109441;28;20358;-73
2022/03/26 02:35:51;;;;;;;;;;;;;;;4.93;66.41;103120.00;5111201;28;19928;-73
2022/03/26 02:38:16;;;;;;;;;;;;;;;4.90;65.54;103117.19;5108306;28;19920;-73
2022/03/26 02:40:42;;;;;;;;;;;;;;;4.88;64.95;103117.81;5109430;28;20002;-73
2022/03/26 02:43:07;;;;;;;;;;;;;;;4.83;65.46;103118.31;5108625;28;20267;-73
2022/03/26 02:45:33;;;;;;;;;;;;;;;4.80;64.73;103119.72;5107219;28;19916;-73
2022/03/26 02:47:58;;;;;;;;;;;;;;;4.76;66.11;103116.00;5110115;28;19916;-72
2022/03/26 02:50:23;;;;;;;;;;;;;;;4.75;66.23;103120.97;5110239;28;19920;-72
2022/03/26 02:52:50;;;;;;;;;;;;;;;4.70;63.28;103120.56;5110838;28;20022;-72
2022/03/26 02:55:16;;;;;;;;;;;;;;;4.69;65.97;103120.41;5090334;28;19924;-73
2022/03/26 02:57:42;;;;;;;;;;;;;;;4.64;66.21;103121.66;5110792;28;19922;-73
2022/03/26 03:00:07;;;;;;;;;;;;;;;4.61;67.26;103123.94;5108045;28;20321;-74
2022/03/26 03:02:34;;;;;;;;;;;;;;;4.57;68.64;103112.59;5110919;28;19960;-74
2022/03/26 03:04:59;;;;;;;;;;;;;;;4.58;65.81;103114.38;5108854;28;19974;-74
2022/03/26 03:07:24;;;;;;;;;;;;;;;4.54;67.91;103120.84;5105943;28;19951;-72
2022/03/26 03:09:50;;;;;;;;;;;;;;;4.51;68.01;103110.41;5110451;28;19932;-72
2022/03/26 03:12:15;;;;;;;;;;;;;;;4.49;67.84;103104.28;5108040;28;20700;-73
2022/03/26 03:14:41;;;;;;;;;;;;;;;4.45;68.14;103114.94;5110075;28;19927;-73
2022/03/26 03:17:06;;;;;;;;;;;;;;;4.43;68.08;103118.09;5109899;28;20337;-72
2022/03/26 03:19:31;;;;;;;;;;;;;;;4.41;66.97;103117.97;5110937;28;19923;-73
2022/03/26 03:21:57;;;;;;;;;;;;;;;4.38;68.66;103114.28;5111776;28;19931;-73
2022/03/26 03:24:22;;;;;;;;;;;;;;;4.36;68.75;103124.31;5108295;28;19926;-73
2022/03/26 03:26:47;;;;;;;;;;;;;;;4.33;70.40;103124.06;5109065;28;19920;-73
2022/03/26 03:29:13;;;;;;;;;;;;;;;4.30;68.37;103122.09;5109923;28;19924;-72
2022/03/26 03:31:44;;;;;;;;;;;;;;;4.28;68.85;103123.63;5091162;28;20586;-73
2022/03/26 03:34:09;;;;;;;;;;;;;;;4.27;67.19;103131.16;5109625;28;19920;-73
2022/03/26 03:36:34;;;;;;;;;;;;;;;4.22;65.28;103133.28;5110248;28;19923;-73
2022/03/26 03:38:59;;;;;;;;;;;;;;;4.21;70.14;103131.50;5107662;28;19924;-73
2022/03/26 03:41:25;;;;;;;;;;;;;;;4.19;67.50;103122.81;5109348;28;20011;-74
2022/03/26 03:43:50;;;;;;;;;;;;;;;4.18;68.52;103130.31;5109549;28;20436;-73
2022/03/26 03:46:15;;;;;;;;;;;;;;;4.15;70.83;103128.38;5110636;28;19926;-74
2022/03/26 03:48:41;;;;;;;;;;;;;;;4.10;66.95;103127.06;5107461;28;19972;-74
2022/03/26 03:51:07;;;;;;;;;;;;;;;4.07;67.66;103129.38;5107294;28;20286;-73
2022/03/26 03:53:33;;;;;;;;;;;;;;;4.03;68.58;103130.72;5106757;28;19974;-73
2022/03/26 03:55:58;;;;;;;;;;;;;;;4.00;69.38;103134.63;5111650;28;19928;-73
2022/03/26 03:58:23;;;;;;;;;;;;;;;3.98;66.32;103131.06;5109717;28;19916;-73
2022/03/26 04:00:49;;;;;;;;;;;;;;;3.98;69.84;103136.16;5106614;28;19920;-74
2022/03/26 04:03:16;;;;;;;;;;;;;;;3.97;69.76;103134.38;5111242;28;19919;-73
2022/03/26 04:05:43;;;;;;;;;;;;;;;3.93;68.15;103132.28;5110554;28;19924;-73
2022/03/26 04:08:08;;;;;;;;;;;;;;;3.89;69.75;103131.13;5108546;28;19993;-74
2022/03/26 04:10:33;;;;;;;;;;;;;;;3.86;68.50;103133.38;5107334;28;20350;-74
2022/03/26 04:12:58;;;;;;;;;;;;;;;3.83;69.37;103135.66;5101249;28;19923;-72
2022/03/26 04:15:24;;;;;;;;;;;;;;;3.81;70.49;103131.16;5109117;28;19920;-73
2022/03/26 04:17:52;;;;;;;;;;;;;;;3.78;70.57;103136.00;5105382;28;19924;-73
2022/03/26 04:20:17;;;;;;;;;;;;;;;3.75;70.87;103134.06;5104660;28;19931;-72
2022/03/26 04:22:42;;;;;;;;;;;;;;;3.71;70.48;103125.25;5108804;28;19923;-73
2022/03/26 04:25:08;;;;;;;;;;;;;;;3.71;72.15;103143.06;5108211;28;19920;-72
2022/03/26 04:27:33;;;;;;;;;;;;;;;3.70;71.30;103136.19;5102372;28;19943;-73
2022/03/26 04:29:58;;;;;;;;;;;;;;;3.67;70.51;103138.44;5093401;28;19946;-73
2022/03/26 04:32:24;;;;;;;;;;;;;;;3.64;71.15;103137.25;5108664;28;20301;-73
2022/03/26 04:34:49;;;;;;;;;;;;;;;3.61;70.77;103139.53;5109254;28;19973;-73
2022/03/26 04:37:15;;;;;;;;;;;;;;;3.58;71.54;103137.63;5109580;28;20354;-73
2022/03/26 04:39:40;;;;;;;;;;;;;;;3.54;70.38;103135.53;5106326;28;19927;-73
2022/03/26 04:42:06;;;;;;;;;;;;;;;3.53;68.27;103130.31;5109350;28;19961;-73
2022/03/26 04:44:31;;;;;;;;;;;;;;;3.52;70.11;103131.97;5105962;28;19916;-74
2022/03/26 04:46:57;;;;;;;;;;;;;;;3.50;68.89;103125.81;5109114;28;19916;-74
2022/03/26 04:49:22;;;;;;;;;;;;;;;3.47;69.91;103139.16;5110158;28;19924;-74
2022/03/26 04:51:48;;;;;;;;;;;;;;;3.47;70.09;103135.72;5109367;28;19935;-73
2022/03/26 04:54:13;;;;;;;;;;;;;;;3.45;69.56;103134.66;5107277;28;19928;-73
2022/03/26 04:56:38;;;;;;;;;;;;;;;3.45;70.00;103134.66;5107817;28;20349;-74
2022/03/26 04:59:04;;;;;;;;;;;;;;;3.45;70.02;103134.66;5106276;28;19988;-74
2022/03/26 05:01:32;;;;;;;;;;;;;;;3.42;70.61;103135.28;5107614;28;19916;-74
2022/03/26 05:03:57;;;;;;;;;;;;;;;3.41;71.91;103137.69;5107684;28;19919;-74
2022/03/26 05:06:23;;;;;;;;;;;;;;;3.39;69.69;103131.53;5108685;28;20286;-73
2022/03/26 05:08:48;;;;;;;;;;;;;;;3.37;70.42;103131.41;5105350;28;19977;-73
2022/03/26 05:11:14;;;;;;;;;;;;;;;3.39;76.24;103139.16;5110987;28;19927;-73
2022/03/26 05:13:39;;;;;;;;;;;;;;;3.38;71.30;103148.44;5107097;28;20396;-73
2022/03/26 05:16:04;;;;;;;;;;;;;;;3.39;67.87;103150.25;5109687;28;19926;-73
2022/03/26 05:18:30;;;;;;;;;;;;;;;3.37;75.51;103146.66;5111981;27;19916;-74
2022/03/26 05:20:58;;;;;;;;;;;;;;;3.35;70.61;103143.09;5114106;28;19923;-73
2022/03/26 05:23:24;;;;;;;;;;;;;;;3.36;69.28;103147.44;5110247;27;19954;-74
2022/03/26 05:25:49;;;;;;;;;;;;;;;3.35;74.06;103154.91;5111298;28;20355;-72
2022/03/26 05:28:14;;;;;;;;;;;;;;;3.36;74.53;103152.50;5112483;28;20370;-73
2022/03/26 05:30:40;;;;;;;;;;;;;;;3.37;70.64;103158.50;5109167;28;20393;-73
2022/03/26 05:33:05;;;;;;;;;;;;;;;3.39;72.31;103162.06;5115229;27;19919;-73
2022/03/26 05:35:31;;;;;;;;;;;;;;;3.43;75.88;103161.59;5093911;28;19981;-73
2022/03/26 05:37:56;;;;;;;;;;;;;;;3.46;73.38;103157.72;5112432;27;19934;-73
2022/03/26 05:40:22;;;;;;;;;;;;;;;3.48;70.26;103168.91;5111652;28;19998;-73
2022/03/26 05:42:48;;;;;;;;;;;;;;;3.52;72.94;103169.19;5112911;28;19920;-73
2022/03/26 05:45:14;;;;;;;;;;;;;;;3.56;72.04;103169.63;5110949;28;19920;-74
2022/03/26 05:47:39;;;;;;;;;;;;;;;3.60;69.22;103171.72;5093086;28;19934;-73
2022/03/26 05:50:06;;;;;;;;;;;;;;;3.67;68.98;103166.44;5112218;28;19927;-73
2022/03/26 05:52:33;;;;;;;;;;;;;;;3.73;69.58;103169.53;5110466;28;20207;-73
2022/03/26 05:54:59;;;;;;;;;;;;;;;3.85;72.79;103167.22;5111987;28;20022;-73
2022/03/26 05:57:24;;;;;;;;;;;;;;;4.00;71.11;103171.19;5110389;28;20037;-73
2022/03/26 05:59:49;;;;;;;;;;;;;;;4.27;71.04;103179.53;5111649;28;19930;-73
2022/03/26 06:02:15;;;;;;;;;;;;;;;4.63;72.66;103181.94;5091950;28;20370;-73
2022/03/26 06:04:40;;;;;;;;;;;;;;;5.00;71.24;103177.53;5108837;28;19923;-74
2022/03/26 06:07:07;;;;;;;;;;;;;;;5.36;70.03;103172.16;5093586;28;19978;-73
2022/03/26 06:09:32;;;;;;;;;;;;;;;5.65;70.80;103177.22;5095554;28;19920;-73
2022/03/26 06:11:57;;;;;;;;;;;;;;;5.90;70.67;103172.50;5109172;28;20278;-72
2022/03/26 06:14:26;;;;;;;;;;;;;;;6.21;67.55;103175.97;5110321;28;19916;-73
2022/03/26 06:16:51;;;;;;;;;;;;;;;6.55;67.37;103178.72;5110121;28;20532;-73
2022/03/26 06:19:16;;;;;;;;;;;;;;;6.94;67.68;103181.94;5112083;28;19934;-74
2022/03/26 06:21:42;;;;;;;;;;;;;;;7.29;67.08;103183.84;5111179;28;19966;-74
2022/03/26 06:24:08;;;;;;;;;;;;;;;7.48;65.40;103183.59;5107291;27;19919;-74
2022/03/26 06:26:36;;;;;;;;;;;;;;;7.82;65.59;103181.94;5107459;28;19964;-73
2022/03/26 06:29:01;;;;;;;;;;;;;;;8.18;63.80;103188.06;5108791;28;20329;-74
2022/03/26 06:31:26;;;;;;;;;;;;;;;8.53;63.43;103193.28;5111722;28;19916;-74
2022/03/26 06:33:52;;;;;;;;;;;;;;;8.87;61.89;103191.50;5108719;28;20386;-74
2022/03/26 06:36:18;;;;;;;;;;;;;;;9.33;61.86;103190.50;5106619;28;19949;-73
2022/03/26 06:38:44;;;;;;;;;;;;;;;9.90;59.56;103187.59;5109153;28;19927;-73
2022/03/26 06:41:09;;;;;;;;;;;;;;;10.51;58.69;103192.50;5104521;27;19916;-74
2022/03/26 06:43:35;;;;;;;;;;;;;;;11.20;57.12;103187.50;5107017;28;19985;-74
2022/03/26 06:46:00;;;;;;;;;;;;;;;11.87;56.11;103186.50;5110841;28;19983;-73
2022/03/26 06:48:26;;;;;;;;;;;;;;;12.52;54.75;103189.47;5115640;28;19916;-73
2022/03/26 06:50:51;;;;;;;;;;;;;;;13.19;53.51;103189.75;5112272;27;19919;-74
2022/03/26 06:53:17;;;;;;;;;;;;;;;13.91;51.69;103184.13;5108660;28;19924;-74
2022/03/26 06:55:42;;;;;;;;;;;;;;;14.61;50.75;103189.34;5107654;28;19924;-75
2022/03/26 06:58:07;;;;;;;;;;;;;;;15.30;48.29;103184.84;5111770;28;19911;-73
2022/03/26 07:00:32;;;;;;;;;;;;;;;15.93;48.94;103185.94;5105023;28;20385;-73
2022/03/26 07:02:58;;;;;;;;;;;;;;;16.56;45.16;103180.75;5107979;28;19919;-74
2022/03/26 07:05:23;;;;;;;;;;;;;;;17.14;45.59;103181.34;5091368;28;19916;-73
2022/03/26 07:07:48;;;;;;;;;;;;;;;17.60;42.73;103184.78;5108489;28;20006;-74
2022/03/26 07:10:14;;;;;;;;;;;;;;;18.07;42.10;103195.97;5109815;28;20019;-75
2022/03/26 07:12:39;;;;;;;;;;;;;;;18.65;44.03;103190.97;5109731;27;19920;-74
2022/03/26 07:15:05;;;;;;;;;;;;;;;19.10;40.54;103189.75;5107863;27;20278;-74
2022/03/26 07:17:30;;;;;;;;;;;;;;;19.45;33.62;103188.19;5109381;27;19923;-74
2022/03/26 07:19:55;;;;;;;;;;;;;;;19.56;35.68;103197.22;5107225;28;19938;-73
2022/03/26 07:22:21;;;;;;;;;;;;;;;20.18;37.19;103190.19;5108472;28;19924;-74
2022/03/26 07:24:46;;;;;;;;;;;;;;;20.81;32.55;103192.63;5109106;28;19922;-74
2022/03/26 07:27:11;;;;;;;;;;;;;;;21.04;33.71;103192.22;5107953;28;20293;-74
2022/03/26 07:29:39;;;;;;;;;;;;;;;21.24;30.88;103195.28;5107793;28;19927;-74
2022/03/26 07:32:09;;;;;;;;;;;;;;;21.14;32.96;103188.97;5104926;28;19924;-74
2022/03/26 07:34:35;;;;;;;;;;;;;;;21.56;33.27;103194.22;5109663;27;20006;-74
2022/03/26 07:37:00;;;;;;;;;;;;;;;21.77;29.93;103196.34;5106916;28;20610;-74
2022/03/26 07:39:26;;;;;;;;;;;;;;;21.81;31.14;103194.69;5108017;28;19954;-74
2022/03/26 07:41:51;;;;;;;;;;;;;;;21.66;29.13;103195.31;5109380;27;20263;-74
2022/03/26 07:44:16;;;;;;;;;;;;;;;21.75;32.08;103205.03;5108361;28;20289;-74
2022/03/26 07:46:42;;;;;;;;;;;;;;;22.21;32.13;103199.81;5108134;28;20263;-73
2022/03/26 07:49:07;;;;;;;;;;;;;;;22.70;28.63;103197.97;5108097;28;19977;-73
2022/03/26 07:51:32;;;;;;;;;;;;;;;22.74;29.53;103197.13;5107029;28;20091;-74
2022/03/26 07:53:57;;;;;;;;;;;;;;;23.18;27.60;103202.16;5108427;28;19930;-75
2022/03/26 07:56:23;;;;;;;;;;;;;;;22.98;29.48;103199.25;5106488;28;19934;-74
2022/03/26 07:58:49;;;;;;;;;;;;;;;23.36;26.41;103204.13;5109173;28;20004;-74
2022/03/26 08:01:14;;;;;;;;;;;;;;;23.08;28.30;103200.25;5108120;28;20385;-74
2022/03/26 08:03:40;;;;;;;;;;;;;;;22.74;27.41;103202.38;5107094;28;19947;-75
2022/03/26 08:06:05;;;;;;;;;;;;;;;22.70;28.62;103199.72;5109123;28;20366;-75
2022/03/26 08:08:30;;;;;;;;;;;;;;;23.24;26.91;103204.88;5107694;28;19962;-74
2022/03/26 08:10:55;;;;;;;;;;;;;;;23.24;27.09;103211.84;5108526;28;19919;-74
2022/03/26 08:13:21;;;;;;;;;;;;;;;23.12;27.99;103214.31;5106687;28;19958;-75
2022/03/26 08:15:46;;;;;;;;;;;;;;;23.15;27.95;103209.97;5090368;28;19972;-74
2022/03/26 08:18:12;;;;;;;;;;;;;;;24.06;28.43;103218.03;5105745;28;19927;-74
2022/03/26 08:20:38;;;;;;;;;;;;;;;25.60;24.82;103215.53;5102029;28;20374;-73
2022/03/26 08:23:03;;;;;;;;;;;;;;;26.61;24.81;103215.63;5108291;28;19923;-74
2022/03/26 08:28:14;;;;;;;;;;;;;;;27.84;21.90;103225.72;5103838;28;19926;-73
2022/03/26 08:30:40;;;;;;;;;;;;;;;27.76;21.95;103223.13;5102105;28;19927;-74
2022/03/26 08:33:05;;;;;;;;;;;;;;;28.27;23.28;103227.16;5104794;28;19950;-73
2022/03/26 08:35:34;;;;;;;;;;;;;;;29.31;22.27;103231.38;5108035;28;20362;-74
2022/03/26 08:38:00;;;;;;;;;;;;;;;30.24;22.72;103223.84;5108041;28;19916;-73
2022/03/26 08:40:25;;;;;;;;;;;;;;;31.01;23.59;103227.75;5107583;28;19912;-74
2022/03/26 08:42:50;;;;;;;;;;;;;;;31.66;19.26;103228.97;5099169;28;19941;-74
2022/03/26 08:45:16;;;;;;;;;;;;;;;31.91;20.60;103231.94;5102510;28;19969;-73
2022/03/26 08:47:41;;;;;;;;;;;;;;;32.12;18.60;103227.03;5107726;28;20366;-74
2022/03/26 08:50:06;;;;;;;;;;;;;;;31.86;20.81;103233.88;5107177;28;20282;-74
2022/03/26 08:52:34;;;;;;;;;;;;;;;32.23;22.09;103225.84;5105242;28;19926;-73
2022/03/26 08:54:59;;;;;;;;;;;;;;;32.72;20.39;103231.69;5104861;28;19931;-73
2022/03/26 08:57:25;;;;;;;;;;;;;;;33.15;17.42;103235.81;5104247;28;19922;-74
2022/03/26 08:59:50;;;;;;;;;;;;;;;33.50;17.54;103229.44;5112968;28;20435;-74
2022/03/26 09:02:16;;;;;;;;;;;;;;;33.64;17.52;103228.97;5108256;28;19920;-74
2022/03/26 09:04:41;;;;;;;;;;;;;;;33.49;17.15;103228.56;5109357;28;19922;-72
2022/03/26 09:07:06;;;;;;;;;;;;;;;33.45;19.20;103226.91;5102337;28;19919;-74
2022/03/26 09:09:31;;;;;;;;;;;;;;;33.58;19.17;103232.72;5111762;28;19923;-73
2022/03/26 09:11:57;;;;;;;;;;;;;;;33.26;17.75;103233.69;5109515;28;19966;-73
2022/03/26 09:14:22;;;;;;;;;;;;;;;33.47;19.43;103237.50;5107199;28;19916;-74
2022/03/26 09:16:47;;;;;;;;;;;;;;;34.10;19.39;103231.91;5110923;28;19926;-74
2022/03/26 09:19:13;;;;;;;;;;;;;;;34.54;16.16;103234.00;5106116;28;20340;-74
2022/03/26 09:21:38;;;;;;;;;;;;;;;34.11;18.56;103241.66;5106261;28;19968;-76
2022/03/26 09:24:03;;;;;;;;;;;;;;;34.59;18.19;103230.22;5107121;28;19926;-75
2022/03/26 09:26:29;;;;;;;;;;;;;;;35.12;16.90;103232.72;5107912;28;19916;-75
2022/03/26 09:28:54;;;;;;;;;;;;;;;35.23;15.01;103228.75;5110324;28;19962;-75
2022/03/26 09:31:19;;;;;;;;;;;;;;;34.06;15.92;103229.41;5110218;27;19920;-75
2022/03/26 09:33:45;;;;;;;;;;;;;;;32.97;15.94;103232.75;5107924;28;19920;-76
2022/03/26 09:36:11;;;;;;;;;;;;;;;31.92;17.20;103236.38;5107733;27;19938;-75
2022/03/26 09:38:36;;;;;;;;;;;;;;;30.64;18.23;103228.41;5113540;28;20362;-74
2022/03/26 09:41:01;;;;;;;;;;;;;;;30.11;19.22;103230.28;5112811;28;19919;-75
2022/03/26 09:43:28;;;;;;;;;;;;;;;30.80;20.12;103224.59;5106613;28;19959;-74
2022/03/26 09:45:53;;;;;;;;;;;;;;;32.37;19.33;103225.50;5110843;28;19998;-74
2022/03/26 09:48:18;;;;;;;;;;;;;;;34.04;16.42;103226.78;5106912;28;19958;-73
2022/03/26 09:50:45;;;;;;;;;;;;;;;34.97;17.04;103225.28;5103509;28;19935;-74
2022/03/26 09:53:12;;;;;;;;;;;;;;;35.64;16.43;103227.16;5113606;28;19950;-73
2022/03/26 09:55:38;;;;;;;;;;;;;;;36.41;16.35;103228.38;5108588;28;19942;-74
2022/03/26 09:58:03;;;;;;;;;;;;;;;36.90;15.17;103231.56;5111539;28;19916;-73
2022/03/26 10:00:29;;;;;;;;;;;;;;;36.97;15.11;103226.78;5105836;28;20011;-73
2022/03/26 10:02:54;;;;;;;;;;;;;;;37.06;13.56;103226.31;5101722;28;20006;-73
2022/03/26 10:05:19;;;;;;;;;;;;;;;36.72;14.42;103225.19;5101196;28;19922;-74
2022/03/26 10:07:45;;;;;;;;;;;;;;;36.99;15.27;103230.25;5104881;28;19916;-73
2022/03/26 10:10:20;;;;;;;;;;;;;;;37.23;13.84;103221.03;5105263;28;19941;-75
2022/03/26 10:12:48;;;;;;;;;;;;;;;35.58;14.16;103216.69;5100461;28;20037;-75
2022/03/26 10:15:14;;;;;;;;;;;;;;;34.99;14.92;103210.06;5104409;28;19943;-74
2022/03/26 10:17:39;;;;;;;;;;;;;;;35.45;15.78;103213.66;5107975;28;20308;-73
2022/03/26 10:20:04;;;;;;;;;;;;;;;35.73;14.03;103208.03;5106923;28;20362;-73
2022/03/26 10:22:32;;;;;;;;;;;;;;;35.62;14.30;103213.84;5111750;28;19920;-72
2022/03/26 10:24:59;;;;;;;;;;;;;;;35.44;15.17;103214.59;5109322;28;20410;-73
2022/03/26 10:27:25;;;;;;;;;;;;;;;35.51;14.26;103212.53;5105917;28;19912;-73
2022/03/26 10:29:51;;;;;;;;;;;;;;;35.75;13.95;103208.84;5105993;28;20378;-72
2022/03/26 10:32:39;;;;;;;;;;;;;;;36.09;14.06;103205.63;5093327;28;20322;-71
2022/03/26 10:35:17;;;;;;;;;;;;;;;35.33;13.57;103208.75;5107172;28;19916;-71
2022/03/26 10:37:45;;;;;;;;;;;;;;;32.63;16.06;103208.81;5108630;28;20085;-72
2022/03/26 10:40:24;;;;;;;;;;;;;;;32.02;17.71;103208.63;5099615;28;20056;-72
2022/03/26 10:43:12;;;;;;;;;;;;;;;33.20;16.63;103196.56;5097978;28;19912;-73
2022/03/26 10:45:48;;;;;;;;;;;;;;;34.11;15.82;103198.09;5103088;28;19922;-73
2022/03/26 10:48:13;;;;;;;;;;;;;;;32.84;17.05;103199.34;5111722;28;20408;-73
2022/03/26 10:50:39;;;;;;;;;;;;;;;31.87;17.81;103197.50;5111428;28;19920;-74
2022/03/26 10:53:06;;;;;;;;;;;;;;;31.43;18.84;103194.97;5111576;28;19920;-73
2022/03/26 10:55:32;;;;;;;;;;;;;;;32.49;17.64;103203.00;5105580;28;19926;-74
2022/03/26 10:57:58;;;;;;;;;;;;;;;32.49;17.47;103192.34;5110094;28;19916;-74
2022/03/26 11:00:24;;;;;;;;;;;;;;;32.89;17.30;103194.81;5107824;28;19923;-74
2022/03/26 11:02:49;;;;;;;;;;;;;;;32.07;18.08;103197.00;5108632;28;19916;-74
2022/03/26 11:05:14;;;;;;;;;;;;;;;30.96;19.45;103190.66;5101831;28;19915;-74
2022/03/26 11:07:43;;;;;;;;;;;;;;;31.46;18.84;103189.56;5111124;28;20018;-74
2022/03/26 11:10:09;;;;;;;;;;;;;;;31.67;18.32;103198.84;5110466;28;20014;-73
2022/03/26 11:12:36;;;;;;;;;;;;;;;31.41;19.12;103188.78;5101752;28;19930;-73
2022/03/26 11:15:03;;;;;;;;;;;;;;;33.04;17.70;103190.78;5109600;28;20526;-73
2022/03/26 11:17:44;;;;;;;;;;;;;;;31.66;18.12;103193.53;5102014;28;19924;-74
2022/03/26 11:20:15;;;;;;;;;;;;;;;30.50;19.69;103182.69;5108544;28;19916;-74
2022/03/26 11:22:59;;;;;;;;;;;;;;;31.70;18.68;103189.91;5106479;28;19934;-73
2022/03/26 11:25:43;;;;;;;;;;;;;;;31.21;18.92;103185.69;5104370;28;20510;-73
2022/03/26 11:28:24;;;;;;;;;;;;;;;30.09;19.68;103182.50;5104281;28;19919;-71
2022/03/26 11:31:07;;;;;;;;;;;;;;;29.96;20.32;103188.91;5107035;28;20421;-74
2022/03/26 11:33:34;;;;;;;;;;;;;;;29.31;20.89;103181.03;5109041;28;19912;-74
2022/03/26 11:36:01;;;;;;;;;;;;;;;29.08;21.25;103178.69;5106777;28;20461;-74
2022/03/26 11:38:30;;;;;;;;;;;;;;;29.44;20.90;103180.88;5108163;28;19918;-74
2022/03/26 11:41:01;;;;;;;;;;;;;;;29.25;21.37;103172.31;5108675;28;19920;-73
2022/03/26 11:43:47;;;;;;;;;;;;;;;30.42;19.81;103173.09;5105106;28;19974;-73
2022/03/26 11:51:58;;;;;;;;;;;;;;;27.23;22.50;103167.03;5106361;28;19968;-75
2022/03/26 11:54:23;;;;;;;;;;;;;;;26.66;23.26;103163.72;5100765;28;20053;-74
2022/03/26 11:57:08;;;;;;;;;;;;;;;28.00;22.23;103158.63;5105907;28;20390;-72
2022/03/26 11:59:36;;;;;;;;;;;;;;;29.24;20.69;103160.78;5102684;28;19998;-73
2022/03/26 12:02:14;;;;;;;;;;;;;;;29.17;21.21;103148.53;5107991;27;19916;-73
2022/03/26 12:04:48;;;;;;;;;;;;;;;30.54;19.60;103149.88;5102253;28;19957;-73
2022/03/26 12:07:16;;;;;;;;;;;;;;;31.07;19.07;103147.91;5103616;28;20010;-74
2022/03/26 12:09:42;;;;;;;;;;;;;;;31.56;18.44;103149.47;5100414;28;19963;-72
2022/03/26 12:12:16;;;;;;;;;;;;;;;32.07;18.98;103152.63;5103072;28;19953;-73
2022/03/26 12:15:00;;;;;;;;;;;;;;;31.47;17.98;103154.06;5103823;28;19911;-72
2022/03/26 12:17:44;;;;;;;;;;;;;;;30.14;19.42;103140.84;5104670;28;19927;-75
2022/03/26 12:20:28;;;;;;;;;;;;;;;30.55;18.94;103146.28;5108753;28;20362;-73
2022/03/26 12:23:06;;;;;;;;;;;;;;;30.61;19.45;103140.88;5107594;28;19916;-74
2022/03/26 12:25:32;;;;;;;;;;;;;;;31.21;19.18;103136.06;5102227;28;19930;-74
2022/03/26 12:27:58;;;;;;;;;;;;;;;32.39;17.83;103133.13;5102109;28;19912;-73
2022/03/26 12:30:24;;;;;;;;;;;;;;;31.04;18.32;103127.56;5105214;28;19924;-74
2022/03/26 12:32:49;;;;;;;;;;;;;;;30.04;19.88;103120.69;5104969;28;20379;-73
2022/03/26 12:35:14;;;;;;;;;;;;;;;30.61;19.78;103124.94;5108468;28;19923;-73
2022/03/26 12:37:40;;;;;;;;;;;;;;;31.09;18.41;103125.69;5106225;28;20341;-73
2022/03/26 12:40:07;;;;;;;;;;;;;;;30.25;19.38;103123.88;5110052;28;19919;-73
2022/03/26 12:42:33;;;;;;;;;;;;;;;30.13;19.89;103122.31;5105079;28;19916;-73
2022/03/26 12:44:58;;;;;;;;;;;;;;;30.72;19.80;103116.78;5110173;28;19920;-72
2022/03/26 12:47:24;;;;;;;;;;;;;;;31.39;19.06;103113.50;5106326;28;19972;-71